createdAt,value
2022-10-15T00:00:14.464Z,1.95
2022-10-15T00:02:40.772Z,1.77
2022-10-15T00:05:07.480Z,1.88
2022-10-15T00:07:33.735Z,1.80
2022-10-15T00:09:59.970Z,2.08
2022-10-15T00:12:26.957Z,1.95
2022-10-15T00:14:53.801Z,2.03
2022-10-15T00:17:20.363Z,1.63
2022-10-15T00:19:46.872Z,1.60
2022-10-15T00:22:12.999Z,2.05
2022-10-15T00:24:39.238Z,2.13
2022-10-15T00:27:05.514Z,2.20
2022-10-15T00:29:31.657Z,1.70
2022-10-15T00:31:57.869Z,1.83
2022-10-15T00:34:24.063Z,2.10
2022-10-15T00:36:50.994Z,1.80
2022-10-15T00:39:17.154Z,2.20
2022-10-15T00:41:44.343Z,1.90
2022-10-15T00:44:28.786Z,2.00
2022-10-15T00:47:11.167Z,1.85
2022-10-15T00:49:42.224Z,2.08
2022-10-15T00:52:25.859Z,1.90
2022-10-15T00:55:07.843Z,2.22
2022-10-15T00:57:34.642Z,2.00
2022-10-15T01:00:08.554Z,2.08
2022-10-15T01:02:35.042Z,1.63
2022-10-15T01:05:01.672Z,2.00
2022-10-15T01:07:28.413Z,1.98
2022-10-15T01:09:54.816Z,1.98
2022-10-15T01:12:39.063Z,1.98
2022-10-15T01:15:29.842Z,1.98
2022-10-15T01:18:16.122Z,2.20
2022-10-15T01:20:53.946Z,1.73
2022-10-15T01:23:51.169Z,2.05
2022-10-15T01:26:50.732Z,1.55
2022-10-15T01:29:57.698Z,1.95
2022-10-15T01:32:28.816Z,1.77
2022-10-15T01:35:13.610Z,2.20
2022-10-15T01:37:45.779Z,2.20
2022-10-15T01:40:21.428Z,2.05
2022-10-15T01:43:05.382Z,2.08
2022-10-15T01:45:33.369Z,1.75
2022-10-15T01:48:04.833Z,2.00
2022-10-15T01:50:33.714Z,1.60
2022-10-15T01:53:01.883Z,2.08
2022-10-15T01:55:30.068Z,2.17
2022-10-15T01:57:58.963Z,1.70
2022-10-15T02:00:25.720Z,2.00
2022-10-15T02:02:52.459Z,1.77
2022-10-15T02:05:40.549Z,1.83
2022-10-15T02:08:39.478Z,1.83
2022-10-15T02:11:11.212Z,1.73
2022-10-15T02:14:08.568Z,1.90
2022-10-15T02:16:49.623Z,2.05
2022-10-15T02:19:26.617Z,1.92
2022-10-15T02:22:17.259Z,2.00
2022-10-15T02:25:08.599Z,2.13
2022-10-15T02:27:37.430Z,2.28
2022-10-15T02:30:07.543Z,1.90
2022-10-15T02:32:37.304Z,2.28
2022-10-15T02:35:05.502Z,2.00
2022-10-15T02:37:34.857Z,1.77
2022-10-15T02:40:01.470Z,2.10
2022-10-15T02:42:28.199Z,2.25
2022-10-15T02:44:54.391Z,2.08
2022-10-15T02:47:20.678Z,1.90
2022-10-15T02:49:46.874Z,2.10
2022-10-15T02:52:12.941Z,1.90
2022-10-15T02:54:38.993Z,1.80
2022-10-15T02:57:05.044Z,2.03
2022-10-15T02:59:31.151Z,2.00
2022-10-15T03:01:57.492Z,2.15
2022-10-15T03:04:23.731Z,1.90
2022-10-15T03:06:50.237Z,1.80
2022-10-15T03:09:16.834Z,2.10
2022-10-15T03:11:43.222Z,1.80
2022-10-15T03:14:09.583Z,1.80
2022-10-15T03:16:35.864Z,1.90
2022-10-15T03:19:02.498Z,1.80
2022-10-15T03:21:30.398Z,1.90
2022-10-15T03:23:59.625Z,1.80
2022-10-15T03:26:25.879Z,1.60
2022-10-15T03:28:52.415Z,1.95
2022-10-15T03:31:18.828Z,2.13
2022-10-15T03:33:44.890Z,1.90
2022-10-15T03:36:11.225Z,1.85
2022-10-15T03:38:37.387Z,2.13
2022-10-15T03:41:03.767Z,2.05
2022-10-15T03:43:30.524Z,1.92
2022-10-15T03:46:02.296Z,1.88
2022-10-15T03:48:28.921Z,2.08
2022-10-15T03:50:54.986Z,1.83
2022-10-15T03:53:21.304Z,2.03
2022-10-15T03:55:47.502Z,2.10
2022-10-15T03:58:13.629Z,1.70
2022-10-15T04:00:44.466Z,2.42
2022-10-15T04:03:10.843Z,2.10
2022-10-15T04:05:37.935Z,2.17
2022-10-15T04:08:04.251Z,2.20
2022-10-15T04:10:30.533Z,2.42
2022-10-15T04:12:56.622Z,2.00
2022-10-15T04:15:22.785Z,2.45
2022-10-15T04:17:48.862Z,1.98
2022-10-15T04:20:15.235Z,2.25
2022-10-15T04:22:41.705Z,2.33
2022-10-15T04:25:08.798Z,2.22
2022-10-15T04:27:35.112Z,1.98
2022-10-15T04:30:01.495Z,1.80
2022-10-15T04:32:27.735Z,1.90
2022-10-15T04:34:54.225Z,1.77
2022-10-15T04:37:20.492Z,2.08
2022-10-15T04:39:47.006Z,1.83
2022-10-15T04:42:13.127Z,1.73
2022-10-15T04:44:39.756Z,2.35
2022-10-15T04:47:06.105Z,2.10
2022-10-15T04:49:32.226Z,2.08
2022-10-15T04:51:58.675Z,1.92
2022-10-15T04:56:53.993Z,2.00
2022-10-15T04:59:20.067Z,2.20
2022-10-15T05:01:46.515Z,1.98
2022-10-15T05:04:13.597Z,2.40
2022-10-15T05:06:39.689Z,1.88
2022-10-15T05:09:06.018Z,1.90
2022-10-15T05:11:36.321Z,2.22
2022-10-15T05:14:02.932Z,1.90
2022-10-15T05:16:30.191Z,2.03
2022-10-15T05:19:00.371Z,2.28
2022-10-15T05:21:27.732Z,1.90
2022-10-15T05:23:54.394Z,1.73
2022-10-15T05:26:22.873Z,2.00
2022-10-15T05:28:50.159Z,2.10
2022-10-15T05:31:19.405Z,1.92
2022-10-15T05:33:47.355Z,2.50
2022-10-15T05:36:26.862Z,2.13
2022-10-15T05:38:56.486Z,2.03
2022-10-15T05:41:22.913Z,2.00
2022-10-15T05:43:50.128Z,1.95
2022-10-15T05:46:18.119Z,2.10
2022-10-15T05:48:51.686Z,1.80
2022-10-15T05:51:18.598Z,2.00
2022-10-15T05:53:45.644Z,2.22
2022-10-15T05:56:13.605Z,2.00
2022-10-15T05:58:40.093Z,1.80
2022-10-15T06:01:10.201Z,2.50
2022-10-15T06:03:37.240Z,2.00
2022-10-15T06:06:03.706Z,2.00
2022-10-15T06:08:30.562Z,1.92
2022-10-15T06:11:06.684Z,1.95
2022-10-15T06:13:41.277Z,1.90
2022-10-15T06:16:08.583Z,2.13
2022-10-15T06:18:36.190Z,2.20
2022-10-15T06:21:02.479Z,2.15
2022-10-15T06:23:29.534Z,2.17
2022-10-15T06:25:55.845Z,1.80
2022-10-15T06:28:22.157Z,2.05
2022-10-15T06:30:48.513Z,1.95
2022-10-15T06:33:16.491Z,1.90
2022-10-15T06:35:42.642Z,2.22
2022-10-15T06:38:08.895Z,2.08
2022-10-15T06:40:34.951Z,1.80
2022-10-15T06:43:05.582Z,1.90
2022-10-15T06:45:31.998Z,1.98
2022-10-15T06:47:58.097Z,2.40
2022-10-15T06:50:24.331Z,1.90
2022-10-15T06:52:50.435Z,2.10
2022-10-15T06:55:16.906Z,1.88
2022-10-15T06:57:43.067Z,2.20
2022-10-15T07:00:10.002Z,2.03
2022-10-15T07:02:36.315Z,2.33
2022-10-15T07:05:02.749Z,2.25
2022-10-15T07:07:28.917Z,2.17
2022-10-15T07:09:55.447Z,2.03
2022-10-15T07:12:21.888Z,1.95
2022-10-15T07:14:48.779Z,2.00
2022-10-15T07:17:16.183Z,2.28
2022-10-15T07:19:43.342Z,1.95
2022-10-15T07:22:10.615Z,2.10
2022-10-15T07:24:36.744Z,2.03
2022-10-15T07:27:08.022Z,2.30
2022-10-15T07:29:43.141Z,2.10
2022-10-15T07:32:09.465Z,2.83
2022-10-15T07:34:35.557Z,1.92
2022-10-15T07:37:01.698Z,1.95
2022-10-15T07:39:27.848Z,2.15
2022-10-15T07:41:53.901Z,2.00
2022-10-15T07:44:20.391Z,1.85
2022-10-15T07:46:47.979Z,2.00
2022-10-15T07:49:15.684Z,2.22
2022-10-15T07:51:42.503Z,1.70
2022-10-15T07:54:08.570Z,1.90
2022-10-15T07:56:34.818Z,1.70
2022-10-15T07:59:00.865Z,1.85
2022-10-15T08:01:26.950Z,1.98
2022-10-15T08:03:53.276Z,2.00
2022-10-15T08:06:19.793Z,1.90
2022-10-15T08:08:47.053Z,2.10
2022-10-15T08:11:15.697Z,1.98
2022-10-15T08:13:42.960Z,2.17
2022-10-15T08:16:11.182Z,2.33
2022-10-15T08:18:37.376Z,2.08
2022-10-15T08:21:05.866Z,1.90
2022-10-15T08:23:32.542Z,1.90
2022-10-15T08:26:00.115Z,1.92
2022-10-15T08:28:30.562Z,1.98
2022-10-15T08:31:02.570Z,1.90
2022-10-15T08:33:32.296Z,1.60
2022-10-15T08:35:58.645Z,1.85
2022-10-15T08:38:24.904Z,1.88
2022-10-15T08:40:54.561Z,1.88
2022-10-15T08:43:36.611Z,1.83
2022-10-15T08:46:08.325Z,1.98
2022-10-15T08:48:40.807Z,2.03
2022-10-15T08:51:15.378Z,1.70
2022-10-15T08:53:48.175Z,2.00
2022-10-15T08:56:26.828Z,1.80
2022-10-15T08:59:20.539Z,1.95
2022-10-15T09:01:55.011Z,1.95
2022-10-15T09:04:56.311Z,1.80
2022-10-15T09:07:29.493Z,1.88
2022-10-15T09:10:14.109Z,2.00
2022-10-15T09:12:55.539Z,1.90
2022-10-15T09:15:27.670Z,1.80
2022-10-15T09:17:54.958Z,1.70
2022-10-15T09:20:30.057Z,1.65
2022-10-15T09:22:56.246Z,2.08
2022-10-15T09:25:26.411Z,1.90
2022-10-15T09:28:01.821Z,1.90
2022-10-15T09:30:40.071Z,1.70
2022-10-15T09:33:43.674Z,1.67
2022-10-15T09:36:22.587Z,1.95
2022-10-15T09:38:57.139Z,1.73
2022-10-15T09:41:53.211Z,1.98
2022-10-15T09:44:23.893Z,2.05
2022-10-15T09:46:51.048Z,1.80
2022-10-15T09:49:23.285Z,1.83
2022-10-15T09:52:13.448Z,1.90
2022-10-15T09:55:10.616Z,1.73
2022-10-15T09:57:38.782Z,1.80
2022-10-15T10:00:09.972Z,1.88
2022-10-15T10:02:39.158Z,1.80
2022-10-15T10:05:28.551Z,1.70
2022-10-15T10:08:21.295Z,1.92
2022-10-15T10:11:04.509Z,1.80
2022-10-15T10:13:38.327Z,1.77
2022-10-15T10:16:12.267Z,1.80
2022-10-15T10:18:39.271Z,1.77
2022-10-15T10:21:20.398Z,1.90
2022-10-15T10:23:47.193Z,1.88
2022-10-15T10:26:14.184Z,1.63
2022-10-15T10:28:56.861Z,1.63
2022-10-15T10:31:42.322Z,1.80
2022-10-15T10:34:15.283Z,1.55
2022-10-15T10:36:44.096Z,1.65
2022-10-15T10:39:12.832Z,1.67
2022-10-15T10:42:06.414Z,1.80
2022-10-15T10:44:38.901Z,1.70
2022-10-15T10:47:07.971Z,1.75
2022-10-15T10:49:37.143Z,2.00
2022-10-15T10:52:04.435Z,1.70
2022-10-15T10:54:32.266Z,1.60
2022-10-15T10:57:01.267Z,1.80
2022-10-15T10:59:41.894Z,1.60
2022-10-15T11:02:12.375Z,1.75
2022-10-15T11:04:39.695Z,1.73
2022-10-15T11:07:14.209Z,2.00
2022-10-15T11:10:01.622Z,1.63
2022-10-15T11:12:49.042Z,1.63
2022-10-15T11:15:56.824Z,2.40
2022-10-15T11:18:47.992Z,1.80
2022-10-15T11:21:53.763Z,1.90
2022-10-15T11:24:42.606Z,1.70
2022-10-15T11:27:37.448Z,1.70
2022-10-15T11:30:51.140Z,1.80
2022-10-15T11:33:38.469Z,1.70
2022-10-15T11:36:26.164Z,1.67
2022-10-15T11:39:25.512Z,1.65
2022-10-15T11:42:15.296Z,1.70
2022-10-15T11:44:57.695Z,2.03
2022-10-15T11:48:02.182Z,1.60
2022-10-15T11:50:40.675Z,1.60
2022-10-15T11:53:07.274Z,1.30
2022-10-15T11:55:44.310Z,1.75
2022-10-15T11:58:32.570Z,1.92
2022-10-15T12:01:08.747Z,1.85
2022-10-15T12:03:42.989Z,1.70
2022-10-15T12:06:16.828Z,1.75
2022-10-15T12:08:45.193Z,1.60
2022-10-15T12:11:33.041Z,1.50
2022-10-15T12:14:34.140Z,1.60
2022-10-15T12:17:03.465Z,1.90
2022-10-15T12:19:47.012Z,1.65
2022-10-15T12:22:33.575Z,1.42
2022-10-15T12:25:01.454Z,1.60
2022-10-15T12:27:34.362Z,2.58
2022-10-15T12:30:07.605Z,1.65
2022-10-15T12:32:41.569Z,1.80
2022-10-15T12:37:49.521Z,1.60
2022-10-15T12:40:31.266Z,1.75
2022-10-15T12:43:16.677Z,1.50
2022-10-15T12:45:52.865Z,1.48
2022-10-15T12:48:30.461Z,1.80
2022-10-15T12:51:23.117Z,1.17
2022-10-15T12:53:51.230Z,1.52
2022-10-15T12:56:17.282Z,1.63
2022-10-15T12:58:54.423Z,1.40
2022-10-15T13:01:20.533Z,1.50
2022-10-15T13:03:52.495Z,1.40
2022-10-15T13:06:21.720Z,1.48
2022-10-15T13:08:56.514Z,1.50
2022-10-15T13:11:29.336Z,1.58
2022-10-15T13:14:10.529Z,1.42
2022-10-15T13:16:37.565Z,1.30
2022-10-15T13:19:04.111Z,1.75
2022-10-15T13:21:49.271Z,1.60
2022-10-15T13:24:18.952Z,1.30
2022-10-15T13:26:45.449Z,1.75
2022-10-15T13:29:16.686Z,1.55
2022-10-15T13:31:44.569Z,1.50
2022-10-15T13:34:15.941Z,1.42
2022-10-15T13:36:44.607Z,1.50
2022-10-15T13:39:25.285Z,1.50
2022-10-15T13:41:53.110Z,1.17
2022-10-15T13:44:22.038Z,1.42
2022-10-15T13:46:49.191Z,1.55
2022-10-15T13:49:19.014Z,1.50
2022-10-15T13:51:51.150Z,1.08
2022-10-15T13:54:21.113Z,1.50
2022-10-15T13:56:55.199Z,1.50
2022-10-15T13:59:22.469Z,1.45
2022-10-15T14:01:53.621Z,1.20
2022-10-15T14:04:22.142Z,1.40
2022-10-15T14:06:56.949Z,1.30
2022-10-15T14:09:28.230Z,1.40
2022-10-15T14:11:59.093Z,1.40
2022-10-15T14:14:46.268Z,1.50
2022-10-15T14:17:28.255Z,1.30
2022-10-15T14:20:26.826Z,1.48
2022-10-15T14:22:48.964Z,1.40
2022-10-15T14:25:23.065Z,1.30
2022-10-15T14:27:49.247Z,1.52
2022-10-15T14:30:27.646Z,1.45
2022-10-15T14:32:54.155Z,1.40
2022-10-15T14:35:24.459Z,1.50
2022-10-15T14:38:02.926Z,0.93
2022-10-15T14:40:29.129Z,1.50
2022-10-15T14:42:55.211Z,1.55
2022-10-15T14:45:26.409Z,1.40
2022-10-15T14:47:59.090Z,1.30
2022-10-15T14:50:33.774Z,1.50
2022-10-15T14:53:04.975Z,1.25
2022-10-15T14:55:37.785Z,1.10
2022-10-15T14:58:18.262Z,1.40
2022-10-15T15:01:07.234Z,1.40
2022-10-15T15:03:42.148Z,1.38
2022-10-15T15:06:09.245Z,1.38
2022-10-15T15:08:36.009Z,1.20
2022-10-15T15:11:05.219Z,1.30
2022-10-15T15:13:37.981Z,2.05
2022-10-15T15:16:04.741Z,1.33
2022-10-15T15:18:30.860Z,1.35
2022-10-15T15:21:02.043Z,1.20
2022-10-15T15:23:29.757Z,1.50
2022-10-15T15:25:56.624Z,1.40
2022-10-15T15:28:24.944Z,1.23
2022-10-15T15:30:59.935Z,1.13
2022-10-15T15:33:27.694Z,1.27
2022-10-15T15:36:01.205Z,0.95
2022-10-15T15:38:31.013Z,1.35
2022-10-15T15:41:03.402Z,1.33
2022-10-15T15:43:30.311Z,1.05
2022-10-15T15:45:56.557Z,1.15
2022-10-15T15:48:22.830Z,1.10
2022-10-15T15:50:48.903Z,1.65
2022-10-15T15:53:15.169Z,1.17
2022-10-15T15:55:41.259Z,1.23
2022-10-15T15:58:07.302Z,1.30
2022-10-15T16:00:33.586Z,1.40
2022-10-15T16:02:59.663Z,1.20
2022-10-15T16:05:26.019Z,1.17
2022-10-15T16:07:52.329Z,0.88
2022-10-15T16:10:18.595Z,1.25
2022-10-15T16:12:44.858Z,1.02
2022-10-15T16:15:14.407Z,1.10
2022-10-15T16:17:42.522Z,1.20
2022-10-15T16:20:09.850Z,1.50
2022-10-15T16:22:36.499Z,1.30
2022-10-15T16:25:02.921Z,1.40
2022-10-15T16:27:29.175Z,1.30
2022-10-15T16:29:55.521Z,1.20
2022-10-15T16:32:21.622Z,1.20
2022-10-15T16:34:47.994Z,1.13
2022-10-15T16:37:14.262Z,1.42
2022-10-15T16:39:40.434Z,1.20
2022-10-15T16:42:07.905Z,1.20
2022-10-15T16:44:34.433Z,1.10
2022-10-15T16:47:00.853Z,1.35
2022-10-15T16:49:27.099Z,1.20
2022-10-15T16:51:53.146Z,1.33
2022-10-15T16:54:19.387Z,1.23
2022-10-15T16:56:49.126Z,1.23
2022-10-15T16:59:19.714Z,1.25
2022-10-15T17:01:46.948Z,0.95
2022-10-15T17:04:13.268Z,1.33
2022-10-15T17:06:39.426Z,1.30
2022-10-15T17:09:05.628Z,1.20
2022-10-15T17:11:38.070Z,1.33
2022-10-15T17:14:09.838Z,1.60
2022-10-15T17:16:42.022Z,1.85
2022-10-15T17:19:09.145Z,1.10
2022-10-15T17:21:36.097Z,0.90
2022-10-15T17:24:07.501Z,1.20
2022-10-15T17:26:38.008Z,1.20
2022-10-15T17:29:06.439Z,0.95
2022-10-15T17:31:32.809Z,1.05
2022-10-15T17:34:01.487Z,1.30
2022-10-15T17:36:29.141Z,1.05
2022-10-15T17:38:56.406Z,1.35
2022-10-15T17:41:24.793Z,1.20
2022-10-15T17:43:51.330Z,1.08
2022-10-15T17:46:20.504Z,1.33
2022-10-15T17:48:47.493Z,1.10
2022-10-15T17:51:19.367Z,1.30
2022-10-15T17:53:45.869Z,1.00
2022-10-15T17:56:18.900Z,1.02
2022-10-15T17:58:45.823Z,1.08
2022-10-15T18:01:56.154Z,1.20
2022-10-15T18:04:19.646Z,1.40
2022-10-15T18:06:45.812Z,1.27
2022-10-15T18:09:12.770Z,1.20
2022-10-15T18:11:39.172Z,1.23
2022-10-15T18:14:05.379Z,0.90
2022-10-15T18:16:32.023Z,1.58
2022-10-15T18:18:58.881Z,1.13
2022-10-15T18:21:27.783Z,1.30
2022-10-15T18:23:55.750Z,1.50
2022-10-15T18:26:22.567Z,1.05
2022-10-15T18:28:50.913Z,3.05
2022-10-15T18:31:18.461Z,1.02
2022-10-15T18:33:47.363Z,1.20
2022-10-15T18:36:24.592Z,1.77
2022-10-15T18:38:51.291Z,1.10
2022-10-15T18:41:25.049Z,0.80
2022-10-15T18:44:02.080Z,1.02
2022-10-15T18:46:30.169Z,1.15
2022-10-15T18:48:57.222Z,0.77
2022-10-15T18:51:24.924Z,1.00
2022-10-15T18:53:51.038Z,1.33
2022-10-15T18:56:17.219Z,1.30
2022-10-15T18:58:43.320Z,1.20
2022-10-15T19:01:33.205Z,0.85
2022-10-15T19:04:02.394Z,0.95
2022-10-15T19:06:35.015Z,1.15
2022-10-15T19:09:03.257Z,1.30
2022-10-15T19:11:29.579Z,1.38
2022-10-15T19:13:57.001Z,1.30
2022-10-15T19:16:23.289Z,1.20
2022-10-15T19:18:49.483Z,1.30
2022-10-15T19:21:15.543Z,1.30
2022-10-15T19:23:41.762Z,1.20
2022-10-15T19:26:10.274Z,1.58
2022-10-15T19:28:37.217Z,1.00
2022-10-15T19:31:05.415Z,0.98
2022-10-15T19:33:32.443Z,1.20
2022-10-15T19:35:58.892Z,1.10
2022-10-15T19:38:25.935Z,1.10
2022-10-15T19:40:53.098Z,1.35
2022-10-15T19:43:21.407Z,0.90
2022-10-15T19:45:49.015Z,1.02
2022-10-15T19:48:18.020Z,1.20
2022-10-15T19:50:46.205Z,1.40
2022-10-15T19:53:15.647Z,1.30
2022-10-15T19:55:42.478Z,1.00
2022-10-15T19:58:09.011Z,1.23
2022-10-15T20:00:35.853Z,1.20
2022-10-15T20:03:02.065Z,1.30
2022-10-15T20:05:28.471Z,1.33
2022-10-15T20:07:54.892Z,1.30
2022-10-15T20:10:25.563Z,1.30
2022-10-15T20:12:52.114Z,1.15
2022-10-15T20:15:18.756Z,1.40
2022-10-15T20:17:46.335Z,1.17
2022-10-15T20:20:13.193Z,1.00
2022-10-15T20:22:39.313Z,1.20
2022-10-15T20:25:05.519Z,1.00
2022-10-15T20:27:32.151Z,1.25
2022-10-15T20:29:58.242Z,1.23
2022-10-15T20:32:34.300Z,1.00
2022-10-15T20:35:03.116Z,1.00
2022-10-15T20:37:29.344Z,1.20
2022-10-15T20:42:27.068Z,0.90
2022-10-15T20:44:53.573Z,1.23
2022-10-15T20:47:20.442Z,1.30
2022-10-15T20:49:49.968Z,1.15
2022-10-15T20:52:16.288Z,1.20
2022-10-15T20:54:42.787Z,1.20
2022-10-15T20:57:09.868Z,1.23
2022-10-15T20:59:35.979Z,1.00
2022-10-15T21:02:02.400Z,1.00
2022-10-15T21:04:28.735Z,1.15
2022-10-15T21:06:55.044Z,0.98
2022-10-15T21:09:21.540Z,1.13
2022-10-15T21:11:47.663Z,1.10
2022-10-15T21:14:14.014Z,1.20
2022-10-15T21:16:41.124Z,1.40
2022-10-15T21:19:07.630Z,1.25
2022-10-15T21:21:33.697Z,1.05
2022-10-15T21:23:59.923Z,1.58
2022-10-15T21:26:26.251Z,1.40
2022-10-15T21:28:56.990Z,0.90
2022-10-15T21:31:23.899Z,1.20
2022-10-15T21:33:50.726Z,1.52
2022-10-15T21:36:22.340Z,1.30
2022-10-15T21:38:56.378Z,1.33
2022-10-15T21:41:24.721Z,1.25
2022-10-15T21:43:51.278Z,1.40
2022-10-15T21:46:17.905Z,1.15
2022-10-15T21:48:45.186Z,1.33
2022-10-15T21:51:16.746Z,1.30
2022-10-15T21:53:43.139Z,1.17
2022-10-15T21:56:09.741Z,1.30
2022-10-15T21:58:37.678Z,1.20
2022-10-15T22:01:24.557Z,1.38
2022-10-15T22:03:52.272Z,1.13
2022-10-15T22:06:20.170Z,1.40
2022-10-15T22:08:47.044Z,1.30
2022-10-15T22:11:18.747Z,2.22
2022-10-15T22:13:47.006Z,1.30
2022-10-15T22:16:14.617Z,0.93
2022-10-15T22:18:40.935Z,1.70
2022-10-15T22:21:15.582Z,1.33
2022-10-15T22:23:53.314Z,1.30
2022-10-15T22:26:22.220Z,1.42
2022-10-15T22:28:48.626Z,1.08
2022-10-15T22:31:17.155Z,1.30
2022-10-15T22:33:44.610Z,1.20
2022-10-15T22:36:16.703Z,1.30
2022-10-15T22:38:45.111Z,1.30
2022-10-15T22:41:11.411Z,1.20
2022-10-15T22:43:37.767Z,1.25
2022-10-15T22:46:05.419Z,1.20
2022-10-15T22:48:33.042Z,1.20
2022-10-15T22:51:00.059Z,1.20
2022-10-15T22:53:26.619Z,1.05
2022-10-15T22:56:00.787Z,0.88
2022-10-15T22:58:28.565Z,1.02
2022-10-15T23:00:54.702Z,1.13
2022-10-15T23:03:21.953Z,1.20
2022-10-15T23:05:54.365Z,1.20
2022-10-15T23:08:21.567Z,1.20
2022-10-15T23:10:48.406Z,1.20
2022-10-15T23:13:15.082Z,0.95
2022-10-15T23:15:41.477Z,0.93
2022-10-15T23:18:07.755Z,1.13
2022-10-15T23:20:37.570Z,1.25
2022-10-15T23:23:06.508Z,1.20
2022-10-15T23:25:38.848Z,1.08
2022-10-15T23:28:05.394Z,1.20
2022-10-15T23:30:31.513Z,1.00
2022-10-15T23:32:57.639Z,0.95
2022-10-15T23:35:24.279Z,1.08
2022-10-15T23:37:50.684Z,0.90
2022-10-15T23:40:16.769Z,1.00
2022-10-15T23:42:43.054Z,1.10
2022-10-15T23:45:09.990Z,0.90
2022-10-15T23:47:36.259Z,1.08
2022-10-15T23:50:02.457Z,0.90
2022-10-15T23:52:28.569Z,0.80
2022-10-15T23:54:54.836Z,1.30
2022-10-15T23:57:20.911Z,0.82
2022-10-15T23:59:47.133Z,0.80
